createdAt,value
2019-01-02T00:00:19.963Z,94.37
2019-01-02T00:01:19.925Z,96.64
2019-01-02T00:02:19.890Z,94.46
2019-01-02T00:03:19.861Z,94.56
2019-01-02T00:04:19.824Z,92.76
2019-01-02T00:05:19.776Z,95.12
2019-01-02T00:06:19.739Z,93.99
2019-01-02T00:07:19.706Z,95.41
2019-01-02T00:08:19.666Z,95.12
2019-01-02T00:09:19.638Z,97.88
2019-01-02T00:10:19.610Z,96.45
2019-01-02T00:11:19.560Z,96.26
2019-01-02T00:12:19.541Z,98.54
2019-01-02T00:13:19.481Z,98.63
2019-01-02T00:14:19.446Z,96.45
2019-01-02T00:15:19.402Z,97.40
2019-01-02T00:16:19.369Z,97.88
2019-01-02T00:17:19.329Z,97.78
2019-01-02T00:18:19.294Z,97.40
2019-01-02T00:19:19.273Z,98.54
2019-01-02T00:20:19.207Z,95.98
2019-01-02T00:21:19.177Z,97.12
2019-01-02T00:22:19.139Z,98.25
2019-01-02T00:23:19.104Z,97.88
2019-01-02T00:24:19.064Z,99.99
2019-01-02T00:25:19.026Z,99.39
2019-01-02T00:26:18.995Z,99.20
2019-01-02T00:27:18.959Z,97.88
2019-01-02T00:28:18.918Z,99.58
2019-01-02T00:29:18.872Z,99.49
2019-01-02T00:30:18.839Z,99.99
2019-01-02T00:31:18.797Z,99.99
2019-01-02T00:32:18.766Z,99.99
2019-01-02T00:33:18.725Z,99.99
2019-01-02T00:34:18.691Z,99.99
2019-01-02T00:35:18.651Z,99.99
2019-01-02T00:36:18.616Z,99.96
2019-01-02T00:37:18.572Z,99.99
2019-01-02T00:38:18.532Z,99.99
2019-01-02T00:39:18.497Z,99.99
2019-01-02T00:40:18.463Z,99.99
2019-01-02T00:41:18.428Z,99.99
2019-01-02T00:42:18.390Z,99.99
2019-01-02T00:43:18.356Z,99.99
2019-01-02T00:44:18.321Z,99.99
2019-01-02T00:45:22.299Z,99.99
2019-01-02T00:46:18.232Z,99.99
2019-01-02T00:47:18.202Z,99.99
2019-01-02T00:48:18.165Z,99.99
2019-01-02T00:49:18.125Z,99.99
2019-01-02T00:50:18.097Z,99.99
2019-01-02T00:51:18.049Z,99.99
2019-01-02T00:52:18.007Z,99.99
2019-01-02T00:53:17.978Z,99.99
2019-01-02T00:54:17.936Z,99.99
2019-01-02T00:55:17.898Z,99.99
2019-01-02T00:56:17.863Z,99.99
2019-01-02T00:57:17.872Z,99.99
2019-01-02T00:58:17.790Z,99.99
2019-01-02T00:59:17.744Z,99.99
2019-01-02T01:00:17.716Z,99.99
2019-01-02T01:01:17.680Z,99.99
2019-01-02T01:02:17.622Z,99.99
2019-01-02T01:03:17.597Z,99.99
2019-01-02T01:04:17.557Z,99.99
2019-01-02T01:05:17.526Z,99.99
2019-01-02T01:06:17.488Z,99.99
2019-01-02T01:07:17.444Z,99.99
2019-01-02T01:08:17.410Z,99.99
2019-01-02T01:09:17.387Z,99.99
2019-01-02T01:10:17.332Z,99.99
2019-01-02T01:11:17.301Z,99.99
2019-01-02T01:12:17.258Z,99.99
2019-01-02T01:13:17.236Z,99.99
2019-01-02T01:14:17.189Z,99.99
2019-01-02T01:15:17.141Z,99.99
2019-01-02T01:16:17.112Z,99.99
2019-01-02T01:17:17.063Z,99.99
2019-01-02T01:18:17.033Z,99.99
2019-01-02T01:19:16.989Z,99.99
2019-01-02T01:20:16.959Z,99.99
2019-01-02T01:21:16.917Z,99.99
2019-01-02T01:22:16.877Z,99.99
2019-01-02T01:23:16.848Z,99.99
2019-01-02T01:24:16.807Z,99.99
2019-01-02T01:25:16.768Z,99.99
2019-01-02T01:26:16.734Z,99.99
2019-01-02T01:27:16.699Z,99.99
2019-01-02T01:28:16.674Z,99.99
2019-01-02T01:29:16.617Z,99.99
2019-01-02T01:30:16.579Z,99.99
2019-01-02T01:31:16.538Z,99.99
2019-01-02T01:32:16.513Z,99.99
2019-01-02T01:33:16.466Z,99.99
2019-01-02T01:34:16.469Z,99.99
2019-01-02T01:35:16.387Z,99.99
2019-01-02T01:36:16.358Z,99.99
2019-01-02T01:37:16.322Z,99.99
2019-01-02T01:38:16.276Z,99.99
2019-01-02T01:39:16.245Z,99.99
2019-01-02T01:40:16.198Z,99.99
2019-01-02T01:41:16.173Z,99.99
2019-01-02T01:42:16.143Z,99.99
2019-01-02T01:43:16.090Z,99.99
2019-01-02T01:44:16.053Z,99.99
2019-01-02T01:45:16.010Z,99.99
2019-01-02T01:46:15.973Z,99.99
2019-01-02T01:47:15.938Z,99.99
2019-01-02T01:48:15.903Z,99.99
2019-01-02T01:49:15.868Z,99.99
2019-01-02T01:50:15.828Z,99.99
2019-01-02T01:51:15.798Z,99.99
2019-01-02T01:52:15.749Z,99.99
2019-01-02T01:53:15.704Z,99.99
2019-01-02T01:54:15.685Z,99.99
2019-01-02T01:55:15.636Z,99.99
2019-01-02T01:56:15.613Z,99.99
2019-01-02T01:57:15.577Z,99.99
2019-01-02T01:58:15.528Z,99.99
2019-01-02T01:59:15.494Z,99.99
2019-01-02T02:00:15.444Z,99.99
2019-01-02T02:01:15.414Z,99.99
2019-01-02T02:02:15.378Z,99.99
2019-01-02T02:03:15.342Z,99.99
2019-01-02T02:04:15.304Z,99.99
2019-01-02T02:05:15.261Z,99.99
2019-01-02T02:06:15.231Z,99.99
2019-01-02T02:07:15.206Z,99.99
2019-01-02T02:08:15.153Z,99.99
2019-01-02T02:09:15.111Z,99.99
2019-01-02T02:10:15.076Z,99.99
2019-01-02T02:11:15.031Z,99.99
2019-01-02T02:12:15.002Z,99.99
2019-01-02T02:13:14.965Z,99.99
2019-01-02T02:14:14.977Z,99.99
2019-01-02T02:15:14.887Z,99.99
2019-01-02T02:16:14.851Z,99.99
2019-01-02T02:17:14.809Z,99.99
2019-01-02T02:18:14.775Z,99.99
2019-01-02T02:19:14.732Z,99.99
2019-01-02T02:20:14.704Z,99.99
2019-01-02T02:21:14.674Z,99.99
2019-01-02T02:22:14.621Z,99.99
2019-01-02T02:23:14.591Z,99.99
2019-01-02T02:24:14.549Z,99.99
2019-01-02T02:25:14.502Z,99.99
2019-01-02T02:26:14.470Z,99.99
2019-01-02T02:27:14.432Z,99.99
2019-01-02T02:28:14.395Z,99.99
2019-01-02T02:29:14.362Z,99.99
2019-01-02T02:30:14.336Z,99.99
2019-01-02T02:31:14.282Z,99.99
2019-01-02T02:32:14.258Z,99.99
2019-01-02T02:33:14.210Z,99.99
2019-01-02T02:34:14.166Z,99.99
2019-01-02T02:35:14.132Z,99.99
2019-01-02T02:36:14.098Z,99.99
2019-01-02T02:37:14.050Z,99.99
2019-01-02T02:38:14.017Z,99.99
2019-01-02T02:39:13.984Z,99.99
2019-01-02T02:40:13.942Z,99.99
2019-01-02T02:41:13.905Z,99.99
2019-01-02T02:42:13.866Z,99.99
2019-01-02T02:43:13.826Z,99.99
2019-01-02T02:44:13.804Z,99.99
2019-01-02T02:45:13.753Z,99.99
2019-01-02T02:46:13.718Z,99.99
2019-01-02T02:47:13.683Z,99.99
2019-01-02T02:48:13.657Z,99.99
2019-01-02T02:49:13.608Z,99.99
2019-01-02T02:50:13.570Z,99.99
2019-01-02T02:51:13.536Z,99.99
2019-01-02T02:52:13.496Z,99.99
2019-01-02T02:53:13.449Z,99.99
2019-01-02T02:54:13.422Z,99.99
2019-01-02T02:55:13.381Z,99.99
2019-01-02T02:56:13.346Z,99.99
2019-01-02T02:57:13.303Z,99.99
2019-01-02T02:58:13.266Z,99.99
2019-01-02T02:59:13.231Z,99.99
2019-01-02T03:00:13.194Z,99.99
2019-01-02T03:01:13.175Z,99.99
2019-01-02T03:02:13.113Z,99.99
2019-01-02T03:03:13.078Z,99.99
2019-01-02T03:04:13.038Z,99.99
2019-01-02T03:05:13.004Z,99.99
2019-01-02T03:06:12.966Z,99.99
2019-01-02T03:07:12.932Z,99.99
2019-01-02T03:08:12.888Z,99.99
2019-01-02T03:09:12.856Z,99.99
2019-01-02T03:10:12.802Z,99.99
2019-01-02T03:11:12.772Z,99.99
2019-01-02T03:12:12.728Z,99.99
2019-01-02T03:13:12.702Z,99.99
2019-01-02T03:14:12.668Z,99.99
2019-01-02T03:15:12.623Z,99.99
2019-01-02T03:16:12.587Z,99.99
2019-01-02T03:17:12.564Z,99.99
2019-01-02T03:18:12.521Z,99.99
2019-01-02T03:19:12.478Z,99.99
2019-01-02T03:20:12.437Z,99.99
2019-01-02T03:21:12.403Z,99.99
2019-01-02T03:22:12.358Z,99.99
2019-01-02T03:23:12.337Z,99.99
2019-01-02T03:24:12.329Z,99.99
2019-01-02T03:25:12.250Z,99.99
2019-01-02T03:26:12.208Z,99.99
2019-01-02T03:27:12.173Z,99.99
2019-01-02T03:28:12.147Z,99.99
2019-01-02T03:29:12.108Z,99.99
2019-01-02T03:30:12.063Z,99.99
2019-01-02T03:31:12.033Z,99.99
2019-01-02T03:32:11.993Z,99.99
2019-01-02T03:33:11.951Z,99.99
2019-01-02T03:34:11.918Z,99.99
2019-01-02T03:35:11.874Z,99.99
2019-01-02T03:36:11.830Z,99.99
2019-01-02T03:37:11.799Z,99.99
2019-01-02T03:38:11.760Z,99.99
2019-01-02T03:39:11.719Z,99.99
2019-01-02T03:40:11.689Z,99.99
2019-01-02T03:41:11.651Z,99.99
2019-01-02T03:42:11.615Z,99.99
2019-01-02T03:43:11.577Z,99.99
2019-01-02T03:44:11.536Z,99.99
2019-01-02T03:45:11.493Z,99.99
2019-01-02T03:46:11.453Z,99.99
2019-01-02T03:47:11.423Z,99.99
2019-01-02T03:48:11.389Z,99.99
2019-01-02T03:49:11.341Z,99.99
2019-01-02T03:50:11.311Z,99.99
2019-01-02T03:51:11.266Z,99.99
2019-01-02T03:52:11.242Z,99.99
2019-01-02T03:53:11.195Z,99.99
2019-01-02T03:54:11.158Z,99.99
2019-01-02T03:55:11.124Z,99.99
2019-01-02T03:56:11.085Z,99.99
2019-01-02T03:57:11.044Z,99.99
2019-01-02T03:58:11.004Z,99.99
2019-01-02T03:59:10.974Z,99.99
2019-01-02T04:00:10.934Z,99.99
2019-01-02T04:01:10.895Z,99.99
2019-01-02T04:02:10.852Z,99.99
2019-01-02T04:03:10.821Z,99.99
2019-01-02T04:04:10.784Z,99.99
2019-01-02T04:05:10.755Z,99.99
2019-01-02T04:06:10.712Z,99.99
2019-01-02T04:07:10.670Z,99.99
2019-01-02T04:08:10.625Z,99.99
2019-01-02T04:09:10.586Z,99.99
2019-01-02T04:10:10.551Z,99.99
2019-01-02T04:11:10.519Z,99.99
2019-01-02T04:12:10.485Z,99.99
2019-01-02T04:13:10.447Z,99.99
2019-01-02T04:14:10.401Z,99.99
2019-01-02T04:15:10.361Z,99.99
2019-01-02T04:16:10.330Z,99.99
2019-01-02T04:17:10.281Z,99.99
2019-01-02T04:18:10.256Z,99.99
2019-01-02T04:19:10.221Z,99.99
2019-01-02T04:20:10.176Z,99.99
2019-01-02T04:21:10.140Z,99.99
2019-01-02T04:22:10.101Z,99.99
2019-01-02T04:23:10.062Z,99.99
2019-01-02T04:24:10.028Z,99.99
2019-01-02T04:25:09.986Z,99.99
2019-01-02T04:26:09.958Z,99.99
2019-01-02T04:27:09.920Z,99.99
2019-01-02T04:28:09.875Z,99.99
2019-01-02T04:29:09.833Z,99.99
2019-01-02T04:30:09.801Z,99.99
2019-01-02T04:31:09.767Z,99.99
2019-01-02T04:32:10.399Z,99.99
2019-01-02T04:33:09.687Z,99.99
2019-01-02T04:34:09.656Z,99.99
2019-01-02T04:35:09.618Z,99.99
2019-01-02T04:36:09.583Z,99.99
2019-01-02T04:37:09.538Z,99.99
2019-01-02T04:38:09.506Z,99.99
2019-01-02T04:39:09.466Z,99.99
2019-01-02T04:40:10.430Z,99.99
2019-01-02T04:41:09.402Z,99.99
2019-01-02T04:42:09.362Z,99.99
2019-01-02T04:43:09.315Z,99.99
2019-01-02T04:44:09.278Z,99.99
2019-01-02T04:45:09.238Z,99.99
2019-01-02T04:46:09.201Z,99.99
2019-01-02T04:47:09.162Z,99.99
2019-01-02T04:48:09.126Z,99.99
2019-01-02T04:49:09.083Z,99.99
2019-01-02T04:50:09.049Z,99.99
2019-01-02T04:51:09.010Z,99.99
2019-01-02T04:52:08.974Z,99.99
2019-01-02T04:53:08.934Z,99.99
2019-01-02T04:54:08.899Z,99.99
2019-01-02T04:55:08.864Z,99.99
2019-01-02T04:56:08.837Z,99.99
2019-01-02T04:57:08.782Z,99.99
2019-01-02T04:58:08.754Z,99.99
2019-01-02T04:59:08.704Z,99.99
2019-01-02T05:00:08.673Z,99.99
2019-01-02T05:01:08.635Z,99.99
2019-01-02T05:02:08.590Z,99.99
2019-01-02T05:03:08.559Z,99.99
2019-01-02T05:04:08.533Z,99.99
2019-01-02T05:05:08.484Z,99.99
2019-01-02T05:06:08.445Z,99.99
2019-01-02T05:07:08.411Z,99.99
2019-01-02T05:08:08.370Z,99.99
2019-01-02T05:09:08.335Z,99.99
2019-01-02T05:10:08.301Z,99.99
2019-01-02T05:11:08.251Z,99.99
2019-01-02T05:12:08.218Z,99.99
2019-01-02T05:13:08.180Z,99.99
2019-01-02T05:14:08.145Z,99.99
2019-01-02T05:15:08.100Z,99.99
2019-01-02T05:16:08.074Z,99.99
2019-01-02T05:17:08.025Z,99.99
2019-01-02T05:18:07.988Z,99.99
2019-01-02T05:19:07.964Z,99.99
2019-01-02T05:20:07.930Z,99.99
2019-01-02T05:21:07.879Z,99.99
2019-01-02T05:22:07.845Z,99.99
2019-01-02T05:23:07.810Z,99.99
2019-01-02T05:24:07.763Z,99.99
2019-01-02T05:25:07.729Z,99.99
2019-01-02T05:26:07.688Z,99.99
2019-01-02T05:27:07.653Z,99.99
2019-01-02T05:28:07.615Z,99.99
2019-01-02T05:29:07.575Z,99.99
2019-01-02T05:30:07.535Z,99.99
2019-01-02T05:31:07.505Z,99.99
2019-01-02T05:32:07.466Z,99.99
2019-01-02T05:33:07.416Z,99.99
2019-01-02T05:34:07.387Z,99.99
2019-01-02T05:35:07.356Z,99.99
2019-01-02T05:36:07.320Z,99.99
2019-01-02T05:37:07.280Z,99.99
2019-01-02T05:38:07.236Z,99.99
2019-01-02T05:39:07.203Z,99.99
2019-01-02T05:40:07.170Z,99.99
2019-01-02T05:41:07.124Z,99.99
2019-01-02T05:42:07.090Z,99.99
2019-01-02T05:43:07.050Z,99.99
2019-01-02T05:44:07.006Z,99.99
2019-01-02T05:45:06.971Z,99.99
2019-01-02T05:46:06.937Z,99.99
2019-01-02T05:47:06.914Z,99.99
2019-01-02T05:48:06.865Z,99.99
2019-01-02T05:49:06.822Z,99.99
2019-01-02T05:50:06.784Z,99.99
2019-01-02T05:51:06.745Z,99.99
2019-01-02T05:52:06.722Z,99.99
2019-01-02T05:53:06.677Z,99.99
2019-01-02T05:54:06.635Z,99.99
2019-01-02T05:55:06.597Z,99.99
2019-01-02T05:56:06.580Z,99.99
2019-01-02T05:57:06.516Z,99.99
2019-01-02T05:58:06.483Z,99.99
2019-01-02T05:59:06.445Z,99.99
2019-01-02T06:00:06.406Z,99.99
2019-01-02T06:01:06.376Z,99.99
2019-01-02T06:02:06.336Z,99.99
2019-01-02T06:03:06.301Z,99.99
2019-01-02T06:04:06.267Z,99.99
2019-01-02T06:05:06.223Z,99.99
2019-01-02T06:06:06.187Z,99.99
2019-01-02T06:07:06.143Z,99.99
2019-01-02T06:08:06.111Z,99.99
2019-01-02T06:09:06.067Z,99.99
2019-01-02T06:10:06.028Z,99.99
2019-01-02T06:11:05.988Z,99.99
2019-01-02T06:12:05.959Z,99.99
2019-01-02T06:13:05.913Z,99.99
2019-01-02T06:14:05.882Z,99.99
2019-01-02T06:15:05.872Z,99.99
2019-01-02T06:16:05.818Z,99.99
2019-01-02T06:17:05.768Z,99.99
2019-01-02T06:18:05.737Z,99.99
2019-01-02T06:19:05.692Z,99.99
2019-01-02T06:20:05.658Z,99.99
2019-01-02T06:21:05.622Z,99.99
2019-01-02T06:22:05.576Z,99.99
2019-01-02T06:23:05.535Z,99.99
2019-01-02T06:24:05.506Z,99.99
2019-01-02T06:25:05.483Z,99.99
2019-01-02T06:26:05.422Z,99.99
2019-01-02T06:27:05.392Z,99.99
2019-01-02T06:28:05.359Z,99.99
2019-01-02T06:29:05.316Z,99.99
2019-01-02T06:30:05.277Z,99.99
2019-01-02T06:31:05.244Z,99.99
2019-01-02T06:32:05.205Z,99.99
2019-01-02T06:33:05.165Z,99.99
2019-01-02T06:34:05.125Z,99.99
2019-01-02T06:35:05.086Z,99.99
2019-01-02T06:36:05.045Z,99.99
2019-01-02T06:37:05.012Z,99.99
2019-01-02T06:38:04.975Z,99.99
2019-01-02T06:39:04.928Z,99.99
2019-01-02T06:40:04.899Z,99.99
2019-01-02T06:41:04.856Z,99.99
2019-01-02T06:42:04.815Z,99.99
2019-01-02T06:43:04.785Z,99.99
2019-01-02T06:44:04.746Z,99.99
2019-01-02T06:45:04.705Z,99.99
2019-01-02T06:46:04.670Z,99.99
2019-01-02T06:47:04.626Z,99.99
2019-01-02T06:48:04.605Z,99.99
2019-01-02T06:49:04.553Z,99.99
2019-01-02T06:50:04.515Z,99.99
2019-01-02T06:51:04.473Z,99.99
2019-01-02T06:52:04.439Z,99.99
2019-01-02T06:53:04.404Z,99.99
2019-01-02T06:54:04.359Z,99.99
2019-01-02T06:55:04.330Z,99.99
2019-01-02T06:56:04.291Z,99.99
2019-01-02T06:57:04.246Z,99.99
2019-01-02T06:58:04.216Z,99.99
2019-01-02T06:59:04.177Z,99.99
2019-01-02T07:00:04.141Z,99.99
2019-01-02T07:01:04.104Z,99.99
2019-01-02T07:02:04.065Z,99.99
2019-01-02T07:03:04.023Z,99.99
2019-01-02T07:04:03.983Z,99.99
2019-01-02T07:05:03.947Z,99.99
2019-01-02T07:06:03.911Z,99.99
2019-01-02T07:07:03.873Z,99.99
2019-01-02T07:08:03.832Z,99.99
2019-01-02T07:09:03.801Z,99.99
2019-01-02T07:10:03.760Z,99.53
2019-01-02T07:11:03.720Z,99.99
2019-01-02T07:12:03.685Z,99.99
2019-01-02T07:13:03.647Z,99.91
2019-01-02T07:14:03.610Z,99.99
2019-01-02T07:15:03.590Z,99.99
2019-01-02T07:16:03.531Z,99.72
2019-01-02T07:17:03.496Z,99.99
2019-01-02T07:18:03.473Z,99.91
2019-01-02T07:19:03.417Z,99.99
2019-01-02T07:20:03.381Z,99.99
2019-01-02T07:21:03.337Z,99.99
2019-01-02T07:22:03.326Z,99.99
2019-01-02T07:23:03.258Z,99.91
2019-01-02T07:24:03.227Z,98.77
2019-01-02T07:25:03.182Z,99.99
2019-01-02T07:26:03.151Z,99.91
2019-01-02T07:27:03.112Z,99.99
2019-01-02T07:28:03.081Z,99.99
2019-01-02T07:29:03.087Z,99.91
2019-01-02T07:30:03.025Z,99.72
2019-01-02T07:31:02.965Z,99.82
2019-01-02T07:32:02.923Z,99.06
2019-01-02T07:33:02.883Z,99.06
2019-01-02T07:34:02.853Z,99.25
2019-01-02T07:35:02.811Z,99.15
2019-01-02T07:36:02.777Z,97.73
2019-01-02T07:37:02.736Z,96.59
2019-01-02T07:38:02.691Z,96.97
2019-01-02T07:39:02.652Z,94.42
2019-01-02T07:40:02.622Z,94.70
2019-01-02T07:41:02.577Z,92.42
2019-01-02T07:42:02.537Z,93.84
2019-01-02T07:43:02.504Z,96.12
2019-01-02T07:44:02.491Z,93.65
2019-01-02T07:45:02.432Z,93.18
2019-01-02T07:46:02.397Z,92.99
2019-01-02T07:47:02.358Z,94.32
2019-01-02T07:48:02.313Z,95.26
2019-01-02T07:49:02.284Z,95.26
2019-01-02T07:50:02.247Z,93.56
2019-01-02T07:51:02.193Z,94.89
2019-01-02T07:52:02.172Z,96.97
2019-01-02T07:53:02.142Z,96.12
2019-01-02T07:54:02.093Z,94.98
2019-01-02T07:55:02.057Z,95.93
2019-01-02T07:56:02.009Z,95.07
2019-01-02T07:57:01.983Z,95.07
2019-01-02T07:58:01.943Z,95.36
2019-01-02T07:59:01.892Z,96.31
2019-01-02T08:00:01.870Z,97.64
2019-01-02T08:01:01.827Z,96.69
2019-01-02T08:02:01.787Z,95.65
2019-01-02T08:03:01.749Z,96.22
2019-01-02T08:04:01.708Z,97.54
2019-01-02T08:05:01.659Z,95.36
2019-01-02T08:06:01.639Z,97.64
2019-01-02T08:07:01.595Z,97.16
2019-01-02T08:08:01.554Z,97.73
2019-01-02T08:09:01.523Z,96.97
2019-01-02T08:10:01.483Z,96.26
2019-01-02T08:11:01.444Z,96.41
2019-01-02T08:12:01.408Z,95.36
2019-01-02T08:13:01.363Z,96.97
2019-01-02T08:14:01.328Z,94.98
2019-01-02T08:15:03.359Z,96.41
2019-01-02T08:16:01.268Z,96.31
2019-01-02T08:17:01.226Z,95.45
2019-01-02T08:18:01.168Z,96.78
2019-01-02T08:19:01.145Z,97.21
2019-01-02T08:20:01.099Z,96.26
2019-01-02T08:21:01.066Z,97.64
2019-01-02T08:22:01.024Z,96.92
2019-01-02T08:23:00.990Z,96.08
2019-01-02T08:24:00.951Z,96.97
2019-01-02T08:25:00.913Z,97.45
2019-01-02T08:26:00.873Z,96.69
2019-01-02T08:27:00.835Z,96.36
2019-01-02T08:28:00.813Z,96.41
2019-01-02T08:29:00.761Z,97.16
2019-01-02T08:30:00.731Z,96.08
2019-01-02T08:31:00.681Z,96.36
2019-01-02T08:32:00.651Z,97.02
2019-01-02T08:33:00.613Z,97.21
2019-01-02T08:34:00.578Z,98.07
2019-01-02T08:35:00.530Z,96.64
2019-01-02T08:36:00.495Z,96.92
2019-01-02T08:37:00.460Z,95.03
2019-01-02T08:38:00.419Z,96.26
2019-01-02T08:39:00.384Z,95.50
2019-01-02T08:40:00.350Z,96.45
2019-01-02T08:41:00.310Z,95.50
2019-01-02T08:42:00.270Z,95.31
2019-01-02T08:43:00.229Z,94.74
2019-01-02T08:44:00.191Z,94.56
2019-01-02T08:45:00.166Z,95.07
2019-01-02T08:46:00.130Z,95.36
2019-01-02T08:47:00.085Z,93.80
2019-01-02T08:48:00.046Z,94.93
2019-01-02T08:49:00.014Z,95.03
2019-01-02T08:49:59.969Z,94.27
2019-01-02T08:50:59.930Z,95.41
2019-01-02T08:51:59.895Z,95.98
2019-01-02T08:52:59.851Z,95.03
2019-01-02T08:53:59.817Z,96.26
2019-01-02T08:54:59.776Z,95.41
2019-01-02T08:55:59.749Z,95.60
2019-01-02T08:56:59.706Z,95.12
2019-01-02T08:57:59.671Z,95.41
2019-01-02T08:58:59.626Z,96.26
2019-01-02T08:59:59.587Z,96.08
2019-01-02T09:00:59.545Z,94.65
2019-01-02T09:01:59.521Z,95.31
2019-01-02T09:02:59.486Z,96.08
2019-01-02T09:03:59.466Z,95.31
2019-01-02T09:04:59.415Z,95.50
2019-01-02T09:05:59.386Z,96.08
2019-01-02T09:06:59.320Z,96.36
2019-01-02T09:07:59.298Z,95.31
2019-01-02T09:08:59.247Z,95.50
2019-01-02T09:09:59.220Z,96.26
2019-01-02T09:10:59.172Z,95.22
2019-01-02T09:11:59.149Z,96.36
2019-01-02T09:12:59.106Z,94.27
2019-01-02T09:13:59.066Z,96.26
2019-01-02T09:14:59.025Z,96.36
2019-01-02T09:15:58.991Z,96.45
2019-01-02T09:16:58.945Z,95.41
2019-01-02T09:17:58.910Z,96.26
2019-01-02T09:18:58.881Z,95.50
2019-01-02T09:19:58.846Z,95.98
2019-01-02T09:20:58.797Z,95.22
2019-01-02T09:21:58.766Z,94.74
2019-01-02T09:22:58.727Z,95.69
2019-01-02T09:23:58.683Z,95.31
2019-01-02T09:24:58.653Z,95.12
2019-01-02T09:25:58.611Z,95.22
2019-01-02T09:26:58.605Z,95.88
2019-01-02T09:27:58.542Z,96.45
2019-01-02T09:28:58.508Z,97.40
2019-01-02T09:29:58.467Z,95.31
2019-01-02T09:30:58.426Z,95.31
2019-01-02T09:31:58.397Z,96.26
2019-01-02T09:32:58.353Z,96.26
2019-01-02T09:33:58.316Z,94.74
2019-01-02T09:34:58.282Z,96.26
2019-01-02T09:35:58.236Z,95.98
2019-01-02T09:36:58.201Z,97.69
2019-01-02T09:37:58.161Z,97.59
2019-01-02T09:38:58.132Z,96.73
2019-01-02T09:39:58.093Z,97.40
2019-01-02T09:40:58.050Z,97.69
2019-01-02T09:41:58.014Z,96.83
2019-01-02T09:42:57.974Z,97.40
2019-01-02T09:43:57.944Z,98.82
2019-01-02T09:44:57.902Z,97.12
2019-01-02T09:45:57.864Z,96.36
2019-01-02T09:46:57.828Z,96.45
2019-01-02T09:47:57.861Z,96.45
2019-01-02T09:48:57.764Z,96.08
2019-01-02T09:49:57.750Z,95.98
2019-01-02T09:50:57.685Z,95.98
2019-01-02T09:51:57.637Z,96.26
2019-01-02T09:52:57.604Z,95.22
2019-01-02T09:53:57.559Z,95.31
2019-01-02T09:55:01.407Z,95.69
2019-01-02T09:55:57.489Z,96.26
2019-01-02T09:56:57.444Z,97.88
2019-01-02T09:57:57.419Z,97.69
2019-01-02T09:58:57.383Z,95.31
2019-01-02T09:59:57.338Z,95.50
2019-01-02T10:00:57.302Z,95.41
2019-01-02T10:01:57.273Z,95.12
2019-01-02T10:02:57.231Z,95.50
2019-01-02T10:03:57.192Z,97.88
2019-01-02T10:04:57.158Z,96.73
2019-01-02T10:05:57.118Z,95.22
2019-01-02T10:06:57.079Z,95.98
2019-01-02T10:07:57.052Z,98.25
2019-01-02T10:08:57.004Z,97.69
2019-01-02T10:09:56.979Z,96.97
2019-01-02T10:10:56.938Z,95.31
2019-01-02T10:11:56.903Z,98.25
2019-01-02T10:12:56.854Z,96.41
2019-01-02T10:13:56.818Z,96.55
2019-01-02T10:14:56.784Z,96.17
2019-01-02T10:15:56.745Z,95.03
2019-01-02T10:16:56.715Z,96.45
2019-01-02T10:17:56.750Z,95.12
2019-01-02T10:18:56.866Z,95.27
2019-01-02T10:19:56.742Z,95.88
2019-01-02T10:20:56.561Z,96.26
2019-01-02T10:21:56.515Z,96.97
2019-01-02T10:22:56.485Z,97.92
2019-01-02T10:23:56.453Z,96.36
2019-01-02T10:24:56.419Z,95.31
2019-01-02T10:25:56.384Z,96.26
2019-01-02T10:26:56.335Z,95.46
2019-01-02T10:27:56.310Z,96.50
2019-01-02T10:28:56.261Z,96.45
2019-01-02T10:29:56.230Z,95.60
2019-01-02T10:30:56.184Z,95.17
2019-01-02T10:31:56.149Z,95.03
2019-01-02T10:32:56.110Z,93.84
2019-01-02T10:33:56.087Z,94.51
2019-01-02T10:34:56.041Z,95.65
2019-01-02T10:35:55.995Z,94.42
2019-01-02T10:36:55.957Z,95.55
2019-01-02T10:37:55.932Z,96.03
2019-01-02T10:38:55.920Z,94.98
2019-01-02T10:39:55.852Z,95.17
2019-01-02T10:40:55.815Z,97.74
2019-01-02T10:41:55.774Z,95.36
2019-01-02T10:42:55.750Z,95.93
2019-01-02T10:43:55.702Z,95.46
2019-01-02T10:44:55.664Z,96.31
2019-01-02T10:45:55.627Z,96.88
2019-01-02T10:46:55.584Z,97.36
2019-01-02T10:47:55.551Z,97.64
2019-01-02T10:48:55.516Z,97.45
2019-01-02T10:49:55.478Z,98.02
2019-01-02T10:50:55.440Z,97.55
2019-01-02T10:51:55.407Z,99.44
2019-01-02T10:52:55.368Z,98.59
2019-01-02T10:53:55.338Z,99.99
2019-01-02T10:54:55.346Z,99.99
2019-01-02T10:55:55.327Z,99.99
2019-01-02T10:56:55.220Z,99.99
2019-01-02T10:57:55.187Z,99.99
2019-01-02T10:58:55.145Z,99.99
2019-01-02T10:59:55.107Z,99.99
2019-01-02T11:00:55.071Z,99.99
2019-01-02T11:01:55.048Z,99.99
2019-01-02T11:02:55.006Z,99.99
2019-01-02T11:03:54.994Z,99.99
2019-01-02T11:04:54.926Z,99.99
2019-01-02T11:05:54.897Z,99.99
2019-01-02T11:06:54.857Z,99.99
2019-01-02T11:07:54.818Z,99.99
2019-01-02T11:08:54.803Z,99.99
2019-01-02T11:09:54.753Z,99.99
2019-01-02T11:10:54.722Z,99.99
2019-01-02T11:11:54.693Z,99.99
2019-01-02T11:12:54.661Z,99.99
2019-01-02T11:13:54.618Z,99.99
2019-01-02T11:14:54.571Z,99.99
2019-01-02T11:15:54.548Z,99.99
2019-01-02T11:16:54.522Z,99.99
2019-01-02T11:17:54.488Z,99.99
2019-01-02T11:18:54.458Z,99.99
2019-01-02T11:19:54.428Z,99.99
2019-01-02T11:20:54.387Z,99.99
2019-01-02T11:21:54.354Z,99.99
2019-01-02T11:22:54.324Z,99.99
2019-01-02T11:23:54.317Z,99.99
2019-01-02T11:24:54.275Z,99.99
2019-01-02T11:25:54.229Z,99.99
2019-01-02T11:26:54.209Z,99.99
2019-01-02T11:27:54.180Z,99.99
2019-01-02T11:28:54.128Z,99.99
2019-01-02T11:29:54.096Z,99.99
2019-01-02T11:30:54.069Z,99.99
2019-01-02T11:31:54.042Z,99.99
2019-01-02T11:32:54.002Z,99.99
2019-01-02T11:33:53.967Z,99.99
2019-01-02T11:34:53.979Z,99.99
2019-01-02T11:35:53.902Z,99.99
2019-01-02T11:36:53.878Z,99.99
2019-01-02T11:37:53.838Z,99.99
2019-01-02T11:38:53.813Z,99.99
2019-01-02T11:39:53.800Z,99.99
2019-01-02T11:40:53.740Z,99.99
2019-01-02T11:41:53.710Z,99.99
2019-01-02T11:42:53.695Z,99.99
2019-01-02T11:43:53.764Z,99.99
2019-01-02T11:44:53.619Z,99.99
2019-01-02T11:45:53.575Z,99.99
2019-01-02T11:46:53.538Z,99.99
2019-01-02T11:47:53.514Z,99.99
2019-01-02T11:48:53.475Z,99.99
2019-01-02T11:49:53.442Z,99.99
2019-01-02T11:50:53.404Z,99.99
2019-01-02T11:51:53.385Z,99.99
2019-01-02T11:52:53.412Z,99.99
2019-01-02T11:53:53.303Z,99.99
2019-01-02T11:54:53.270Z,99.99
2019-01-02T11:55:53.231Z,99.99
2019-01-02T11:56:53.193Z,99.99
2019-01-02T11:57:53.161Z,99.99
2019-01-02T11:58:53.128Z,99.99
2019-01-02T11:59:53.094Z,99.99
2019-01-02T12:00:53.060Z,99.99
2019-01-02T12:01:53.011Z,99.99
2019-01-02T12:02:52.992Z,99.99
2019-01-02T12:03:52.940Z,99.99
2019-01-02T12:04:52.905Z,99.99
2019-01-02T12:05:52.886Z,99.99
2019-01-02T12:06:52.843Z,99.99
2019-01-02T12:07:52.804Z,99.99
2019-01-02T12:08:52.764Z,99.99
2019-01-02T12:09:52.731Z,99.99
2019-01-02T12:10:52.699Z,99.99
2019-01-02T12:11:52.680Z,99.99
2019-01-02T12:12:52.625Z,99.99
2019-01-02T12:13:52.592Z,99.99
2019-01-02T12:14:52.549Z,99.99
2019-01-02T12:15:52.520Z,99.99
2019-01-02T12:16:52.473Z,99.99
2019-01-02T12:17:52.444Z,99.99
2019-01-02T12:18:52.406Z,99.99
2019-01-02T12:19:52.377Z,99.99
2019-01-02T12:20:52.340Z,99.99
2019-01-02T12:21:52.292Z,99.99
2019-01-02T12:22:52.256Z,99.99
2019-01-02T12:23:52.230Z,99.99
2019-01-02T12:24:52.193Z,99.99
2019-01-02T12:25:52.150Z,99.99
2019-01-02T12:26:52.110Z,99.99
2019-01-02T12:27:52.085Z,99.99
2019-01-02T12:28:52.041Z,99.99
2019-01-02T12:29:52.007Z,99.99
2019-01-02T12:30:51.970Z,99.99
2019-01-02T12:31:51.992Z,99.99
2019-01-02T12:32:51.900Z,99.99
2019-01-02T12:33:51.867Z,99.99
2019-01-02T12:34:51.831Z,99.99
2019-01-02T12:35:51.803Z,99.99
2019-01-02T12:36:51.806Z,99.99
2019-01-02T12:37:51.723Z,99.99
2019-01-02T12:38:51.691Z,99.99
2019-01-02T12:39:51.651Z,99.99
2019-01-02T12:40:51.631Z,99.99
2019-01-02T12:41:51.586Z,99.99
2019-01-02T12:42:51.551Z,99.99
2019-01-02T12:43:51.536Z,99.99
2019-01-02T12:44:51.487Z,99.99
2019-01-02T12:45:51.455Z,99.99
2019-01-02T12:46:51.417Z,99.99
2019-01-02T12:47:51.378Z,99.99
2019-01-02T12:48:51.345Z,98.46
2019-01-02T12:49:51.321Z,97.36
2019-01-02T12:50:51.287Z,88.89
2019-01-02T12:51:51.252Z,90.80